Terminal Aerodrome Forecast
Issued by NWS

Home | Current Version | Previous Version | Text Only | Print | Product List | Glossary On
Versions: 1 2 3 4 5 6 7 8 9 10 11 12 13 14 15
000
FTUS46 KSEW 232300
TAFPAE
TAF
KPAE 232322Z 2400/2424 18014G24KT P6SM -RA SCT020 OVC080
      TEMPO 2400/2404 5SM -RA BR BKN020 OVC050
     FM240500 17010G20KT P6SM -SHRA SCT020 OVC040
     FM241100 16008G18KT P6SM VCSH OVC015
     FM242200 20007KT P6SM OVC040=

USA.gov is the U.S. government's official web portal to all federal, state and local government web resources and services.